createdAt,value
2019-01-20T00:00:30.323Z,8.70
2019-01-20T00:05:36.600Z,8.70
2019-01-20T00:10:45.962Z,8.70
2019-01-20T00:15:53.797Z,8.60
2019-01-20T00:21:01.193Z,8.50
2019-01-20T00:26:08.461Z,8.60
2019-01-20T00:31:14.740Z,8.60
2019-01-20T00:36:21.123Z,8.80
2019-01-20T00:41:27.913Z,8.80
2019-01-20T00:46:33.983Z,8.80
2019-01-20T00:51:41.632Z,8.60
2019-01-20T00:56:49.126Z,8.70
2019-01-20T01:01:56.443Z,8.70
2019-01-20T01:07:03.981Z,8.70
2019-01-20T01:12:16.000Z,8.80
2019-01-20T01:17:22.931Z,9.00
2019-01-20T01:22:30.358Z,9.00
2019-01-20T01:27:36.230Z,8.90
2019-01-20T01:32:43.463Z,8.70
2019-01-20T01:37:49.491Z,8.70
2019-01-20T01:42:56.567Z,8.60
2019-01-20T01:48:03.595Z,8.50
2019-01-20T01:53:11.366Z,8.30
2019-01-20T01:58:18.916Z,8.20
2019-01-20T02:03:24.814Z,8.10
2019-01-20T02:08:32.526Z,8.10
2019-01-20T02:13:39.687Z,7.90
2019-01-20T02:18:46.350Z,8.10
2019-01-20T02:23:53.949Z,7.90
2019-01-20T02:29:01.487Z,8.00
2019-01-20T02:34:08.454Z,8.00
2019-01-20T02:39:14.871Z,8.00
2019-01-20T02:44:22.388Z,8.10
2019-01-20T02:49:29.967Z,8.10
2019-01-20T02:54:38.838Z,8.20
2019-01-20T02:59:44.851Z,8.10
2019-01-20T03:04:52.356Z,8.00
2019-01-20T03:09:58.414Z,8.00
2019-01-20T03:15:05.065Z,7.90
2019-01-20T03:20:17.797Z,7.90
2019-01-20T03:25:24.208Z,8.00
2019-01-20T03:30:31.834Z,8.00
2019-01-20T03:35:38.506Z,8.00
2019-01-20T03:40:45.837Z,8.10
2019-01-20T03:45:53.369Z,8.10
2019-01-20T03:51:01.167Z,8.10
2019-01-20T03:56:08.634Z,8.20
2019-01-20T04:01:15.699Z,8.30
2019-01-20T04:06:23.291Z,8.20
2019-01-20T04:11:30.715Z,8.20
2019-01-20T04:16:37.018Z,8.20
2019-01-20T04:21:43.200Z,8.20
2019-01-20T04:26:49.722Z,8.30
2019-01-20T04:31:56.301Z,8.30
2019-01-20T04:37:03.997Z,8.30
2019-01-20T04:42:11.680Z,8.30
2019-01-20T04:47:19.430Z,8.40
2019-01-20T04:52:26.645Z,8.40
2019-01-20T04:57:33.934Z,8.40
2019-01-20T05:02:41.751Z,8.40
2019-01-20T05:07:48.779Z,8.40
2019-01-20T05:12:56.232Z,8.50
2019-01-20T05:18:04.547Z,8.50
2019-01-20T05:23:12.182Z,8.60
2019-01-20T05:28:19.617Z,8.60
2019-01-20T05:33:26.379Z,8.60
2019-01-20T05:38:32.678Z,8.60
2019-01-20T05:43:39.997Z,8.50
2019-01-20T05:48:47.222Z,8.50
2019-01-20T05:53:54.574Z,8.50
2019-01-20T05:59:02.112Z,8.40
2019-01-20T06:04:09.292Z,8.50
2019-01-20T06:09:16.049Z,8.60
2019-01-20T06:14:23.935Z,8.60
2019-01-20T06:19:31.445Z,8.60
2019-01-20T06:24:38.289Z,8.60
2019-01-20T06:29:44.255Z,8.60
2019-01-20T06:34:51.829Z,8.70
2019-01-20T06:39:59.343Z,8.70
2019-01-20T06:45:08.166Z,8.80
2019-01-20T06:50:15.182Z,9.00
2019-01-20T06:55:22.731Z,8.90
2019-01-20T07:00:29.856Z,9.00
2019-01-20T07:05:36.005Z,9.00
2019-01-20T07:10:43.510Z,9.10
2019-01-20T07:15:51.272Z,9.10
2019-01-20T07:20:58.016Z,9.20
2019-01-20T07:26:05.438Z,9.20
2019-01-20T07:31:13.016Z,9.10
2019-01-20T07:36:19.263Z,9.20
2019-01-20T07:41:25.429Z,9.20
2019-01-20T07:46:32.975Z,9.20
2019-01-20T07:51:39.302Z,9.20
2019-01-20T07:56:45.999Z,9.30
2019-01-20T08:01:53.599Z,9.20
2019-01-20T08:07:01.368Z,9.20
2019-01-20T08:12:08.829Z,9.20
2019-01-20T08:17:15.498Z,9.20
2019-01-20T08:22:23.052Z,9.20
2019-01-20T08:27:29.052Z,9.20
2019-01-20T08:32:35.824Z,9.20
2019-01-20T08:37:43.710Z,9.20
2019-01-20T08:42:53.659Z,9.20
2019-01-20T08:48:05.367Z,9.10
2019-01-20T08:53:12.925Z,9.20
2019-01-20T08:58:18.971Z,9.20
2019-01-20T09:03:26.253Z,9.30
2019-01-20T09:08:33.574Z,9.30
2019-01-20T09:13:41.221Z,9.30
2019-01-20T09:18:49.139Z,9.30
2019-01-20T09:23:56.791Z,9.30
2019-01-20T09:29:03.488Z,9.40
2019-01-20T09:34:11.440Z,9.20
2019-01-20T09:39:18.383Z,9.10
2019-01-20T09:44:26.032Z,9.10
2019-01-20T09:49:33.609Z,9.00
2019-01-20T09:54:42.101Z,9.10
2019-01-20T09:59:49.657Z,9.10
2019-01-20T10:04:57.463Z,9.00
2019-01-20T10:10:05.357Z,9.10
2019-01-20T10:15:14.218Z,9.10
2019-01-20T10:20:24.273Z,9.10
2019-01-20T10:25:33.083Z,9.10
2019-01-20T10:30:41.037Z,9.20
2019-01-20T10:36:13.725Z,9.30
2019-01-20T10:41:20.155Z,9.30
2019-01-20T10:46:26.402Z,9.40
2019-01-20T10:51:33.905Z,9.40
2019-01-20T10:56:40.361Z,9.60
2019-01-20T11:01:47.943Z,9.70
2019-01-20T11:06:54.858Z,9.60
2019-01-20T11:12:02.464Z,9.70
2019-01-20T11:17:08.708Z,9.60
2019-01-20T11:22:14.596Z,9.60
2019-01-20T11:27:22.183Z,9.60
2019-01-20T11:32:28.859Z,9.80
2019-01-20T11:37:34.772Z,10.00
2019-01-20T11:42:42.407Z,10.00
2019-01-20T11:47:49.905Z,10.00
2019-01-20T11:52:57.169Z,10.10
2019-01-20T11:58:03.140Z,10.10
2019-01-20T12:03:11.376Z,10.20
2019-01-20T12:08:18.440Z,10.00
2019-01-20T12:13:29.095Z,10.10
2019-01-20T12:18:35.528Z,10.20
2019-01-20T12:23:43.334Z,10.40
2019-01-20T12:28:49.190Z,10.30
2019-01-20T12:33:56.738Z,10.50
2019-01-20T12:39:07.776Z,10.60
2019-01-20T12:44:15.426Z,10.80
2019-01-20T12:49:23.477Z,10.90
2019-01-20T12:54:31.011Z,10.50
2019-01-20T12:59:39.583Z,10.50
2019-01-20T13:04:45.842Z,10.40
2019-01-20T13:09:53.484Z,10.30
2019-01-20T13:15:01.264Z,10.20
2019-01-20T13:20:12.727Z,10.10
2019-01-20T13:25:24.161Z,10.20
2019-01-20T13:30:31.751Z,10.30
2019-01-20T13:35:42.202Z,10.20
2019-01-20T13:40:57.019Z,10.30
2019-01-20T13:46:04.444Z,10.30
2019-01-20T13:51:12.156Z,10.20
2019-01-20T13:56:19.391Z,10.20
2019-01-20T14:01:26.379Z,10.30
2019-01-20T14:06:34.112Z,10.40
2019-01-20T14:11:41.782Z,10.60
2019-01-20T14:16:47.735Z,10.50
2019-01-20T14:21:53.816Z,10.50
2019-01-20T14:27:01.527Z,10.60
2019-01-20T14:32:07.583Z,10.60
2019-01-20T14:37:13.804Z,10.40
2019-01-20T14:42:22.378Z,10.50
2019-01-20T14:47:29.819Z,10.40
2019-01-20T14:52:37.235Z,10.30
2019-01-20T14:57:45.215Z,10.20
2019-01-20T15:02:52.820Z,10.20
2019-01-20T15:07:59.990Z,10.20
2019-01-20T15:13:07.143Z,10.20
2019-01-20T15:18:14.647Z,10.10
2019-01-20T15:23:21.262Z,10.20
2019-01-20T15:28:28.711Z,10.10
2019-01-20T15:33:35.034Z,10.10
2019-01-20T15:38:42.763Z,10.10
2019-01-20T15:43:50.143Z,10.00
2019-01-20T15:48:56.787Z,9.90
2019-01-20T15:54:06.259Z,10.00
2019-01-20T15:59:12.568Z,9.90
2019-01-20T16:04:24.079Z,9.90
2019-01-20T16:09:32.360Z,9.90
2019-01-20T16:14:38.462Z,9.90
2019-01-20T16:19:44.415Z,9.90
2019-01-20T16:24:52.056Z,10.00
2019-01-20T16:30:00.030Z,9.90
2019-01-20T16:35:09.038Z,9.90
2019-01-20T16:40:18.406Z,9.80
2019-01-20T16:45:33.002Z,9.80
2019-01-20T16:50:39.887Z,9.70
2019-01-20T16:55:48.616Z,9.70
2019-01-20T17:00:54.678Z,9.60
2019-01-20T17:06:02.197Z,9.60
2019-01-20T17:11:09.274Z,9.50
2019-01-20T17:16:17.050Z,9.60
2019-01-20T17:21:23.568Z,9.60
2019-01-20T17:26:31.231Z,9.40
2019-01-20T17:31:38.657Z,9.20
2019-01-20T17:36:46.653Z,9.00
2019-01-20T17:41:55.419Z,8.90
2019-01-20T17:47:04.575Z,8.80
2019-01-20T17:52:12.135Z,8.70
2019-01-20T17:57:21.512Z,8.80
2019-01-20T18:02:27.382Z,8.60
2019-01-20T18:07:35.416Z,8.50
2019-01-20T18:12:42.926Z,8.40
2019-01-20T18:17:50.592Z,8.30
2019-01-20T18:22:58.644Z,8.10
2019-01-20T18:28:06.738Z,8.20
2019-01-20T18:33:13.761Z,8.10
2019-01-20T18:38:21.466Z,7.90
2019-01-20T18:43:29.018Z,7.90
2019-01-20T18:48:35.380Z,7.80
2019-01-20T18:53:42.274Z,7.80
2019-01-20T18:58:49.767Z,7.60
2019-01-20T19:03:57.323Z,7.50
2019-01-20T19:09:03.909Z,7.50
2019-01-20T19:14:10.307Z,7.50
2019-01-20T19:19:16.997Z,7.60
2019-01-20T19:24:24.668Z,7.40
2019-01-20T19:29:32.565Z,7.40
2019-01-20T19:34:39.947Z,7.40
2019-01-20T19:39:50.564Z,7.30
2019-01-20T19:44:55.441Z,7.40
2019-01-20T19:50:03.584Z,7.30
2019-01-20T19:55:15.881Z,7.30
2019-01-20T20:00:24.692Z,7.10
2019-01-20T20:05:33.090Z,7.00
2019-01-20T20:10:40.290Z,7.20
2019-01-20T20:15:47.442Z,7.10
2019-01-20T20:20:54.178Z,7.20
2019-01-20T20:26:02.030Z,7.20
2019-01-20T20:31:09.071Z,7.10
2019-01-20T20:36:16.506Z,6.90
2019-01-20T20:41:24.239Z,6.90
2019-01-20T20:46:32.067Z,6.80
2019-01-20T20:51:40.367Z,6.70
2019-01-20T20:56:48.136Z,6.70
2019-01-20T21:01:54.851Z,6.70
2019-01-20T21:07:01.544Z,6.60
2019-01-20T21:12:09.123Z,6.60
2019-01-20T21:17:16.582Z,6.40
2019-01-20T21:22:24.744Z,6.50
2019-01-20T21:27:32.430Z,6.60
2019-01-20T21:32:40.096Z,6.70
2019-01-20T21:37:47.567Z,6.90
2019-01-20T21:42:55.468Z,6.90
2019-01-20T21:48:03.029Z,6.80
2019-01-20T21:53:09.572Z,6.70
2019-01-20T21:58:15.844Z,6.50
2019-01-20T22:03:24.099Z,6.30
2019-01-20T22:08:32.051Z,6.20
2019-01-20T22:13:39.177Z,6.10
2019-01-20T22:18:46.401Z,6.40
2019-01-20T22:23:53.697Z,6.40
2019-01-20T22:29:01.680Z,6.30
2019-01-20T22:34:08.675Z,6.20
2019-01-20T22:39:15.644Z,6.10
2019-01-20T22:44:23.496Z,6.00
2019-01-20T22:49:29.545Z,5.90
2019-01-20T22:54:36.840Z,5.80
2019-01-20T22:59:44.032Z,5.60
2019-01-20T23:04:51.715Z,5.50
2019-01-20T23:09:59.958Z,5.50
2019-01-20T23:15:08.627Z,5.50
2019-01-20T23:20:16.934Z,5.30
2019-01-20T23:25:24.536Z,5.30
2019-01-20T23:30:31.103Z,5.30
2019-01-20T23:35:37.885Z,5.20
2019-01-20T23:40:45.509Z,5.30
2019-01-20T23:45:53.139Z,5.20
2019-01-20T23:51:00.830Z,5.40
2019-01-20T23:56:06.718Z,5.40
